createdAt,value
2024-05-09T00:00:44.629Z,13.10
2024-05-09T00:03:12.425Z,13.00
2024-05-09T00:05:46.177Z,12.90
2024-05-09T00:08:13.524Z,12.90
2024-05-09T00:10:41.423Z,12.90
2024-05-09T00:13:10.393Z,12.90
2024-05-09T00:15:38.623Z,12.80
2024-05-09T00:18:07.467Z,12.80
2024-05-09T00:20:39.298Z,12.70
2024-05-09T00:23:13.571Z,12.70
2024-05-09T00:25:45.133Z,12.80
2024-05-09T00:28:13.211Z,12.70
2024-05-09T00:30:40.908Z,12.60
2024-05-09T00:33:10.256Z,12.60
2024-05-09T00:35:38.950Z,12.80
2024-05-09T00:38:06.672Z,12.50
2024-05-09T00:40:43.396Z,12.50
2024-05-09T00:43:13.115Z,12.50
2024-05-09T00:45:41.653Z,12.40
2024-05-09T00:48:11.615Z,12.30
2024-05-09T00:50:42.505Z,12.30
2024-05-09T00:53:15.934Z,12.30
2024-05-09T00:55:44.044Z,12.30
2024-05-09T00:58:14.309Z,12.20
2024-05-09T01:00:42.027Z,12.20
2024-05-09T01:03:12.111Z,12.30
2024-05-09T01:05:42.435Z,12.30
2024-05-09T01:08:10.961Z,12.10
2024-05-09T01:10:38.458Z,12.10
2024-05-09T01:13:07.053Z,12.10
2024-05-09T01:15:35.751Z,12.10
2024-05-09T01:18:09.833Z,12.10
2024-05-09T01:20:42.074Z,12.00
2024-05-09T01:23:14.010Z,12.30
2024-05-09T01:25:42.849Z,12.00
2024-05-09T01:28:10.064Z,12.00
2024-05-09T01:30:38.219Z,12.00
2024-05-09T01:33:08.952Z,12.00
2024-05-09T01:35:38.932Z,12.30
2024-05-09T01:38:07.532Z,12.10
2024-05-09T01:40:38.620Z,12.10
2024-05-09T01:43:09.336Z,12.20
2024-05-09T01:45:38.184Z,12.20
2024-05-09T01:48:05.780Z,12.30
2024-05-09T01:50:38.265Z,12.20
2024-05-09T01:53:10.334Z,12.20
2024-05-09T01:55:37.877Z,12.20
2024-05-09T01:58:05.148Z,12.30
2024-05-09T02:00:39.146Z,12.20
2024-05-09T02:03:13.968Z,12.30
2024-05-09T02:05:44.902Z,12.40
2024-05-09T02:08:18.114Z,12.10
2024-05-09T02:10:47.618Z,12.10
2024-05-09T02:13:16.268Z,12.10
2024-05-09T02:15:44.187Z,12.10
2024-05-09T02:18:11.996Z,12.00
2024-05-09T02:20:41.291Z,11.90
2024-05-09T02:23:09.488Z,11.90
2024-05-09T02:25:37.027Z,11.90
2024-05-09T02:28:04.246Z,11.80
2024-05-09T02:30:39.417Z,11.70
2024-05-09T02:33:12.400Z,11.70
2024-05-09T02:35:41.676Z,11.60
2024-05-09T02:38:12.499Z,11.60
2024-05-09T02:40:40.561Z,11.50
2024-05-09T02:43:10.537Z,11.50
2024-05-09T02:45:40.085Z,11.40
2024-05-09T02:48:11.545Z,11.50
2024-05-09T02:50:40.897Z,11.40
2024-05-09T02:53:09.506Z,11.30
2024-05-09T02:55:38.501Z,11.40
2024-05-09T02:58:07.951Z,11.50
2024-05-09T03:00:39.732Z,11.30
2024-05-09T03:03:14.793Z,11.10
2024-05-09T03:05:44.871Z,11.10
2024-05-09T03:08:12.828Z,11.30
2024-05-09T03:10:40.318Z,11.00
2024-05-09T03:13:13.812Z,11.00
2024-05-09T03:15:42.899Z,11.00
2024-05-09T03:18:10.788Z,10.90
2024-05-09T03:20:39.180Z,10.90
2024-05-09T03:23:09.323Z,10.90
2024-05-09T03:25:37.909Z,10.70
2024-05-09T03:28:05.616Z,10.80
2024-05-09T03:30:40.168Z,10.80
2024-05-09T03:33:18.705Z,10.70
2024-05-09T03:35:48.013Z,10.70
2024-05-09T03:38:15.530Z,10.70
2024-05-09T03:40:48.847Z,10.60
2024-05-09T03:43:17.491Z,10.60
2024-05-09T03:45:45.820Z,10.60
2024-05-09T03:48:13.520Z,10.80
2024-05-09T03:50:41.450Z,10.60
2024-05-09T03:53:14.457Z,10.60
2024-05-09T03:55:41.971Z,10.50
2024-05-09T03:58:09.649Z,10.50
2024-05-09T04:00:39.394Z,10.50
2024-05-09T04:03:10.777Z,10.60
2024-05-09T04:05:41.916Z,10.50
2024-05-09T04:08:10.892Z,10.60
2024-05-09T04:10:38.518Z,10.60
2024-05-09T04:13:05.691Z,10.60
2024-05-09T04:15:32.944Z,10.60
2024-05-09T04:18:01.054Z,10.60
2024-05-09T04:20:36.854Z,10.70
2024-05-09T04:23:08.664Z,10.70
2024-05-09T04:25:37.670Z,10.70
2024-05-09T04:28:05.538Z,10.80
2024-05-09T04:30:38.738Z,10.80
2024-05-09T04:33:11.930Z,10.80
2024-05-09T04:35:45.306Z,10.90
2024-05-09T04:38:13.835Z,10.90
2024-05-09T04:40:42.955Z,11.00
2024-05-09T04:43:19.136Z,11.00
2024-05-09T04:45:46.570Z,11.10
2024-05-09T04:48:13.950Z,11.20
2024-05-09T04:50:41.403Z,11.40
2024-05-09T04:53:10.553Z,11.30
2024-05-09T04:55:40.123Z,11.40
2024-05-09T04:58:14.452Z,11.40
2024-05-09T05:00:43.161Z,11.50
2024-05-09T05:03:14.259Z,11.60
2024-05-09T05:05:45.055Z,11.70
2024-05-09T05:08:18.778Z,11.80
2024-05-09T05:10:48.250Z,11.90
2024-05-09T05:13:18.138Z,11.80
2024-05-09T05:15:47.160Z,12.00
2024-05-09T05:18:17.955Z,12.10
2024-05-09T05:20:45.733Z,12.20
2024-05-09T05:23:16.172Z,12.30
2024-05-09T05:25:44.473Z,12.40
2024-05-09T05:28:11.612Z,12.50
2024-05-09T05:30:39.249Z,12.60
2024-05-09T05:33:10.469Z,12.60
2024-05-09T05:35:38.836Z,12.70
2024-05-09T05:38:10.405Z,12.80
2024-05-09T05:40:39.346Z,12.90
2024-05-09T05:43:10.002Z,13.00
2024-05-09T05:45:37.940Z,13.00
2024-05-09T05:48:07.271Z,13.10
2024-05-09T05:50:37.478Z,13.20
2024-05-09T05:53:10.454Z,13.30
2024-05-09T05:55:40.567Z,13.40
2024-05-09T05:58:12.055Z,13.40
2024-05-09T06:00:41.739Z,13.60
2024-05-09T06:03:10.993Z,13.80
2024-05-09T06:05:46.132Z,13.80
2024-05-09T06:08:13.432Z,13.90
2024-05-09T06:10:41.557Z,14.00
2024-05-09T06:13:12.795Z,14.40
2024-05-09T06:15:40.747Z,14.20
2024-05-09T06:18:10.416Z,14.30
2024-05-09T06:20:40.076Z,14.40
2024-05-09T06:23:09.506Z,14.50
2024-05-09T06:25:37.501Z,14.60
2024-05-09T06:28:05.378Z,14.70
2024-05-09T06:30:38.870Z,14.80
2024-05-09T06:33:11.655Z,14.90
2024-05-09T06:35:41.226Z,15.00
2024-05-09T06:38:09.450Z,15.10
2024-05-09T06:40:41.250Z,15.30
2024-05-09T06:43:15.388Z,15.30
2024-05-09T06:45:43.994Z,15.40
2024-05-09T06:48:11.983Z,15.50
2024-05-09T06:50:41.257Z,15.70
2024-05-09T06:53:09.410Z,15.80
2024-05-09T06:55:38.012Z,15.80
2024-05-09T06:58:09.465Z,16.00
2024-05-09T07:00:39.815Z,16.20
2024-05-09T07:03:15.367Z,16.20
2024-05-09T07:05:46.647Z,16.30
2024-05-09T07:08:15.050Z,16.40
2024-05-09T07:10:42.374Z,16.60
2024-05-09T07:13:15.116Z,16.70
2024-05-09T07:15:43.439Z,17.00
2024-05-09T07:18:17.845Z,17.00
2024-05-09T07:20:47.745Z,17.20
2024-05-09T07:23:16.010Z,17.40
2024-05-09T07:25:43.572Z,17.50
2024-05-09T07:28:16.967Z,17.70
2024-05-09T07:30:44.810Z,17.90
2024-05-09T07:33:23.297Z,18.40
2024-05-09T07:35:52.120Z,18.40
2024-05-09T07:38:19.464Z,18.70
2024-05-09T07:40:46.987Z,19.00
2024-05-09T07:43:15.556Z,19.30
2024-05-09T07:45:51.364Z,19.60
2024-05-09T07:52:38.812Z,20.30
2024-05-09T07:53:47.349Z,20.70
2024-05-09T07:56:19.166Z,21.00
2024-05-09T07:58:51.227Z,21.40
2024-05-09T08:01:18.994Z,21.80
2024-05-09T08:03:46.651Z,22.20
2024-05-09T08:06:14.093Z,22.60
2024-05-09T08:08:41.391Z,23.10
2024-05-09T08:11:08.769Z,23.50
2024-05-09T08:13:36.101Z,23.90
2024-05-09T08:16:03.509Z,24.40
2024-05-09T08:18:31.111Z,24.90
2024-05-09T08:20:58.630Z,25.40
2024-05-09T08:23:25.998Z,25.90
2024-05-09T08:25:53.160Z,26.40
2024-05-09T08:28:20.830Z,26.90
2024-05-09T08:30:48.167Z,27.40
2024-05-09T08:33:15.810Z,27.90
2024-05-09T08:35:42.998Z,28.30
2024-05-09T08:38:10.610Z,28.90
2024-05-09T08:40:38.389Z,29.30
2024-05-09T08:43:11.911Z,29.80
2024-05-09T08:45:44.092Z,30.20
2024-05-09T08:48:15.671Z,30.60
2024-05-09T08:50:44.907Z,31.00
2024-05-09T08:53:14.878Z,31.40
2024-05-09T08:55:43.846Z,31.60
2024-05-09T08:58:20.376Z,31.80
2024-05-09T09:00:49.356Z,32.20
2024-05-09T09:03:25.462Z,32.60
2024-05-09T09:06:12.610Z,33.00
2024-05-09T09:08:40.234Z,33.40
2024-05-09T09:11:07.720Z,33.90
2024-05-09T09:13:34.968Z,34.20
2024-05-09T09:16:03.141Z,34.40
2024-05-09T09:18:31.030Z,34.60
2024-05-09T09:21:00.133Z,34.90
2024-05-09T09:23:30.207Z,35.20
2024-05-09T09:26:01.279Z,35.50
2024-05-09T09:28:29.615Z,36.00
2024-05-09T09:31:04.089Z,36.40
2024-05-09T09:33:32.212Z,36.90
2024-05-09T09:36:00.748Z,37.20
2024-05-09T09:38:31.472Z,37.60
2024-05-09T09:41:00.184Z,37.90
2024-05-09T09:43:28.179Z,38.30
2024-05-09T09:46:00.096Z,38.60
2024-05-09T09:48:28.181Z,38.90
2024-05-09T09:50:56.842Z,39.20
2024-05-09T09:53:24.520Z,39.50
2024-05-09T09:55:59.294Z,39.70
2024-05-09T09:58:27.616Z,40.00
2024-05-09T10:00:55.273Z,40.40
2024-05-09T10:03:22.894Z,40.60
2024-05-09T10:05:50.571Z,40.60
2024-05-09T10:08:18.937Z,41.10
2024-05-09T10:10:48.288Z,41.00
2024-05-09T10:13:16.299Z,41.00
2024-05-09T10:15:54.661Z,41.00
2024-05-09T10:18:28.487Z,41.00
2024-05-09T10:20:59.616Z,41.00
2024-05-09T10:23:32.565Z,41.00
2024-05-09T10:26:05.543Z,41.10
2024-05-09T10:28:36.839Z,41.20
2024-05-09T10:31:13.161Z,41.40
2024-05-09T10:33:48.940Z,41.60
2024-05-09T10:36:25.095Z,41.90
2024-05-09T10:38:53.833Z,41.90
2024-05-09T10:41:22.766Z,42.00
2024-05-09T10:43:50.733Z,42.00
2024-05-09T10:46:19.942Z,42.10
2024-05-09T10:48:49.859Z,42.20
2024-05-09T10:51:19.549Z,42.20
2024-05-09T10:53:48.188Z,42.00
2024-05-09T10:56:16.336Z,42.00
2024-05-09T10:58:45.038Z,42.10
2024-05-09T11:01:13.464Z,42.30
2024-05-09T11:03:41.574Z,42.50
2024-05-09T11:06:11.240Z,42.80
2024-05-09T11:08:39.298Z,43.20
2024-05-09T11:11:08.460Z,43.60
2024-05-09T11:13:38.193Z,44.10
2024-05-09T11:16:16.982Z,44.40
2024-05-09T11:18:44.735Z,44.70
2024-05-09T11:21:15.199Z,45.10
2024-05-09T11:23:42.393Z,45.50
2024-05-09T11:26:10.897Z,45.70
2024-05-09T11:28:38.262Z,46.10
2024-05-09T11:31:10.711Z,46.40
2024-05-09T11:33:41.251Z,46.80
2024-05-09T11:36:09.390Z,47.10
2024-05-09T11:38:36.705Z,47.40
2024-05-09T11:41:05.639Z,47.60
2024-05-09T11:43:33.221Z,47.90
2024-05-09T11:46:02.625Z,48.10
2024-05-09T11:48:30.765Z,48.20
2024-05-09T11:50:58.251Z,48.30
2024-05-09T11:53:25.414Z,48.50
2024-05-09T11:55:52.451Z,48.60
2024-05-09T11:58:21.412Z,48.60
2024-05-09T12:00:48.692Z,48.50
2024-05-09T12:03:16.878Z,48.50
2024-05-09T12:05:44.548Z,48.60
2024-05-09T12:08:12.141Z,48.50
2024-05-09T12:10:39.476Z,48.60
2024-05-09T12:13:07.496Z,48.60
2024-05-09T12:15:39.103Z,48.70
2024-05-09T12:18:08.073Z,48.70
2024-05-09T12:20:39.026Z,48.70
2024-05-09T12:23:10.120Z,48.70
2024-05-09T12:25:39.756Z,48.70
2024-05-09T12:28:08.930Z,48.70
2024-05-09T12:30:40.654Z,48.60
2024-05-09T12:33:11.827Z,48.60
2024-05-09T12:35:41.114Z,48.50
2024-05-09T12:38:09.077Z,48.50
2024-05-09T12:40:38.646Z,48.30
2024-05-09T12:43:08.435Z,48.40
2024-05-09T12:45:37.200Z,48.30
2024-05-09T12:48:07.448Z,48.30
2024-05-09T12:50:35.488Z,48.30
2024-05-09T12:53:03.933Z,48.30
2024-05-09T12:55:40.996Z,48.30
2024-05-09T12:58:19.707Z,48.50
2024-05-09T13:00:47.379Z,48.60
2024-05-09T13:03:14.939Z,48.70
2024-05-09T13:05:44.892Z,48.80
2024-05-09T13:08:13.615Z,48.90
2024-05-09T13:10:41.268Z,49.00
2024-05-09T13:13:10.550Z,49.00
2024-05-09T13:15:38.464Z,49.00
2024-05-09T13:18:06.718Z,49.00
2024-05-09T13:20:36.309Z,49.00
2024-05-09T13:23:08.541Z,48.90
2024-05-09T13:25:37.904Z,48.90
2024-05-09T13:28:06.669Z,48.90
2024-05-09T13:30:39.623Z,48.80
2024-05-09T13:33:13.928Z,48.80
2024-05-09T13:35:49.023Z,48.80
2024-05-09T13:38:20.259Z,48.70
2024-05-09T13:40:48.417Z,48.70
2024-05-09T13:43:16.246Z,48.60
2024-05-09T13:45:43.898Z,48.40
2024-05-09T13:48:11.435Z,48.40
2024-05-09T13:50:39.160Z,48.20
2024-05-09T13:53:07.873Z,48.10
2024-05-09T13:55:39.406Z,47.90
2024-05-09T13:58:07.550Z,47.70
2024-05-09T14:03:05.524Z,47.20
2024-05-09T14:05:33.192Z,46.90
2024-05-09T14:08:00.859Z,46.60
2024-05-09T14:10:31.178Z,46.40
2024-05-09T14:12:59.970Z,45.90
2024-05-09T14:15:30.482Z,45.70
2024-05-09T14:17:57.860Z,45.40
2024-05-09T14:20:31.041Z,45.20
2024-05-09T14:23:01.005Z,45.10
2024-05-09T14:25:30.016Z,45.00
2024-05-09T14:28:00.579Z,44.80
2024-05-09T14:30:35.846Z,44.60
2024-05-09T14:33:06.514Z,44.40
2024-05-09T14:35:34.543Z,44.30
2024-05-09T14:38:01.948Z,44.20
2024-05-09T14:40:39.268Z,44.20
2024-05-09T14:43:15.149Z,44.00
2024-05-09T14:45:44.045Z,43.90
2024-05-09T14:48:17.232Z,44.00
2024-05-09T14:50:44.656Z,43.60
2024-05-09T14:53:13.671Z,43.50
2024-05-09T14:55:43.060Z,43.40
2024-05-09T14:58:11.936Z,43.30
2024-05-09T15:00:46.944Z,43.20
2024-05-09T15:03:21.995Z,43.00
2024-05-09T15:05:50.492Z,43.00
2024-05-09T15:08:19.119Z,42.90
2024-05-09T15:10:46.821Z,42.80
2024-05-09T15:13:16.491Z,42.80
2024-05-09T15:15:44.586Z,42.60
2024-05-09T15:18:13.653Z,42.50
2024-05-09T15:20:41.486Z,42.30
2024-05-09T15:23:08.908Z,42.20
2024-05-09T15:25:36.652Z,42.00
2024-05-09T15:28:07.372Z,41.90
2024-05-09T15:30:35.214Z,41.70
2024-05-09T15:33:06.942Z,41.50
2024-05-09T15:35:35.803Z,41.30
2024-05-09T15:38:04.001Z,41.10
2024-05-09T15:40:38.694Z,40.80
2024-05-09T15:43:10.424Z,40.60
2024-05-09T15:48:20.548Z,39.90
2024-05-09T15:50:47.941Z,39.50
2024-05-09T15:53:15.337Z,39.20
2024-05-09T15:55:43.297Z,38.80
2024-05-09T15:58:11.317Z,38.50
2024-05-09T16:00:41.741Z,38.10
2024-05-09T16:03:13.121Z,37.90
2024-05-09T16:05:43.456Z,37.60
2024-05-09T16:08:12.067Z,37.30
2024-05-09T16:10:44.229Z,36.80
2024-05-09T16:13:12.832Z,36.60
2024-05-09T16:15:40.528Z,36.30
2024-05-09T16:18:08.086Z,36.00
2024-05-09T16:20:40.158Z,35.70
2024-05-09T16:23:10.176Z,35.40
2024-05-09T16:25:37.988Z,35.10
2024-05-09T16:28:08.982Z,34.80
2024-05-09T16:30:39.257Z,34.60
2024-05-09T16:33:07.294Z,34.30
2024-05-09T16:35:35.250Z,33.90
2024-05-09T16:38:06.630Z,33.70
2024-05-09T16:40:38.629Z,33.40
2024-05-09T16:43:14.508Z,33.10
2024-05-09T16:45:44.709Z,32.90
2024-05-09T16:48:14.080Z,32.50
2024-05-09T16:50:43.368Z,32.30
2024-05-09T16:53:10.866Z,31.90
2024-05-09T16:55:38.435Z,31.60
2024-05-09T16:58:10.367Z,31.30
2024-05-09T17:00:42.093Z,31.00
2024-05-09T17:03:15.153Z,30.60
2024-05-09T17:05:47.436Z,30.30
2024-05-09T17:08:18.205Z,29.90
2024-05-09T17:10:47.760Z,29.60
2024-05-09T17:13:15.414Z,29.30
2024-05-09T17:15:42.740Z,29.00
2024-05-09T17:18:10.058Z,28.80
2024-05-09T17:20:37.954Z,28.40
2024-05-09T17:23:13.304Z,28.20
2024-05-09T17:25:41.870Z,27.90
2024-05-09T17:28:12.572Z,27.60
2024-05-09T17:30:42.122Z,27.40
2024-05-09T17:33:11.307Z,27.10
2024-05-09T17:35:40.104Z,26.90
2024-05-09T17:38:07.394Z,26.60
2024-05-09T17:40:36.915Z,26.40
2024-05-09T17:43:08.033Z,26.20
2024-05-09T17:45:38.315Z,26.00
2024-05-09T17:48:10.095Z,25.80
2024-05-09T17:50:38.958Z,25.60
2024-05-09T17:53:07.154Z,25.40
2024-05-09T17:55:38.461Z,25.10
2024-05-09T17:58:07.958Z,25.00
2024-05-09T18:00:39.585Z,24.80
2024-05-09T18:03:12.119Z,24.70
2024-05-09T18:05:42.883Z,24.50
2024-05-09T18:08:14.272Z,24.40
2024-05-09T18:10:42.344Z,24.20
2024-05-09T18:13:11.807Z,24.10
2024-05-09T18:15:39.707Z,24.00
2024-05-09T18:18:07.977Z,23.80
2024-05-09T18:20:42.847Z,23.70
2024-05-09T18:23:17.619Z,23.60
2024-05-09T18:25:46.625Z,23.40
2024-05-09T18:28:14.491Z,23.30
2024-05-09T18:30:41.805Z,23.20
2024-05-09T18:33:12.392Z,23.00
2024-05-09T18:35:43.454Z,22.90
2024-05-09T18:38:11.096Z,22.80
2024-05-09T18:40:39.710Z,22.60
2024-05-09T18:43:09.134Z,22.50
2024-05-09T18:45:38.371Z,22.40
2024-05-09T18:48:08.622Z,22.30
2024-05-09T18:50:39.768Z,22.10
2024-05-09T18:53:11.094Z,22.10
2024-05-09T18:55:39.096Z,21.90
2024-05-09T18:58:06.547Z,21.80
2024-05-09T19:00:37.462Z,21.70
2024-05-09T19:03:14.440Z,21.60
2024-05-09T19:05:44.705Z,21.50
2024-05-09T19:08:14.568Z,21.40
2024-05-09T19:10:42.084Z,21.20
2024-05-09T19:13:13.915Z,21.40
2024-05-09T19:15:42.858Z,21.10
2024-05-09T19:18:13.632Z,20.90
2024-05-09T19:20:41.486Z,20.90
2024-05-09T19:23:08.916Z,20.70
2024-05-09T19:25:36.578Z,20.70
2024-05-09T19:28:05.851Z,20.60
2024-05-09T19:30:38.930Z,20.50
2024-05-09T19:33:13.439Z,20.40
2024-05-09T19:35:42.077Z,20.30
2024-05-09T19:38:09.286Z,20.20
2024-05-09T19:40:39.695Z,20.10
2024-05-09T19:43:07.192Z,20.00
2024-05-09T19:45:41.200Z,19.90
2024-05-09T19:48:08.792Z,19.80
2024-05-09T19:50:41.970Z,19.80
2024-05-09T19:53:15.105Z,19.70
2024-05-09T19:55:43.034Z,19.60
2024-05-09T19:58:11.238Z,19.60
2024-05-09T20:00:41.677Z,19.50
2024-05-09T20:03:12.866Z,19.40
2024-05-09T20:05:44.294Z,19.30
2024-05-09T20:08:12.616Z,19.30
2024-05-09T20:10:39.804Z,19.20
2024-05-09T20:13:08.784Z,19.20
2024-05-09T20:15:37.733Z,19.20
2024-05-09T20:18:06.711Z,19.10
2024-05-09T20:20:40.516Z,19.00
2024-05-09T20:23:11.619Z,18.90
2024-05-09T20:25:42.121Z,18.90
2024-05-09T20:28:10.347Z,18.90
2024-05-09T20:30:38.219Z,18.80
2024-05-09T20:33:09.191Z,18.80
2024-05-09T20:35:37.237Z,18.70
2024-05-09T20:38:05.003Z,18.70
2024-05-09T20:40:36.419Z,18.60
2024-05-09T20:43:07.960Z,18.60
2024-05-09T20:45:35.988Z,18.60
2024-05-09T20:48:06.541Z,18.50
2024-05-09T20:50:39.266Z,18.40
2024-05-09T20:53:11.384Z,18.40
2024-05-09T20:55:40.311Z,18.40
2024-05-09T20:58:08.871Z,18.30
2024-05-09T21:00:40.510Z,18.30
2024-05-09T21:03:12.498Z,18.20
2024-05-09T21:05:41.161Z,18.20
2024-05-09T21:08:08.816Z,18.10
2024-05-09T21:10:37.217Z,18.10
2024-05-09T21:13:06.464Z,18.00
2024-05-09T21:15:34.982Z,18.00
2024-05-09T21:18:02.618Z,17.90
2024-05-09T21:20:32.803Z,17.90
2024-05-09T21:23:02.096Z,17.80
2024-05-09T21:25:29.846Z,17.80
2024-05-09T21:27:57.383Z,17.70
2024-05-09T21:30:36.946Z,17.70
2024-05-09T21:33:09.791Z,17.60
2024-05-09T21:35:38.533Z,17.60
2024-05-09T21:38:07.030Z,17.50
2024-05-09T21:40:36.168Z,17.50
2024-05-09T21:43:06.610Z,17.40
2024-05-09T21:45:34.680Z,17.40
2024-05-09T21:48:06.563Z,17.30
2024-05-09T21:50:40.020Z,17.30
2024-05-09T21:53:13.586Z,17.20
2024-05-09T21:55:42.325Z,17.20
2024-05-09T21:58:10.790Z,17.20
2024-05-09T22:00:42.930Z,17.10
2024-05-09T22:03:12.390Z,17.10
2024-05-09T22:05:43.570Z,17.00
2024-05-09T22:08:11.359Z,17.00
2024-05-09T22:10:38.887Z,17.00
2024-05-09T22:13:07.707Z,16.90
2024-05-09T22:15:37.659Z,16.90
2024-05-09T22:18:08.030Z,16.90
2024-05-09T22:20:38.921Z,16.80
2024-05-09T22:23:08.697Z,16.80
2024-05-09T22:25:39.592Z,16.70
2024-05-09T22:28:07.434Z,16.70
2024-05-09T22:30:38.298Z,16.70
2024-05-09T22:33:09.066Z,16.60
2024-05-09T22:35:37.693Z,16.60
2024-05-09T22:38:05.174Z,16.60
2024-05-09T22:40:42.180Z,16.50
2024-05-09T22:43:19.265Z,16.50
2024-05-09T22:45:47.800Z,16.40
2024-05-09T22:48:15.277Z,16.40
2024-05-09T22:50:43.263Z,16.40
2024-05-09T22:53:10.547Z,16.40
2024-05-09T22:55:37.611Z,16.40
2024-05-09T22:58:05.058Z,16.30
2024-05-09T23:00:33.381Z,16.30
2024-05-09T23:03:02.212Z,16.30
2024-05-09T23:05:31.980Z,16.30
2024-05-09T23:08:01.198Z,16.20
2024-05-09T23:10:35.448Z,16.20
2024-05-09T23:13:06.835Z,16.20
2024-05-09T23:15:36.677Z,16.20
2024-05-09T23:18:04.208Z,16.20
2024-05-09T23:20:37.309Z,16.10
2024-05-09T23:23:08.246Z,16.10
2024-05-09T23:25:37.082Z,16.10
2024-05-09T23:28:05.446Z,16.20
2024-05-09T23:30:37.751Z,16.10
2024-05-09T23:33:10.454Z,16.10
2024-05-09T23:35:38.500Z,16.00
2024-05-09T23:38:05.742Z,16.00
2024-05-09T23:40:39.614Z,16.00
2024-05-09T23:43:12.787Z,16.00
2024-05-09T23:45:42.750Z,15.90
2024-05-09T23:48:11.428Z,15.90
2024-05-09T23:50:40.272Z,15.90
2024-05-09T23:53:09.475Z,15.90
2024-05-09T23:55:38.097Z,15.90
2024-05-09T23:58:06.228Z,15.80
